Time;durP1;ratioP1;P1;durP2;ratioP2;P2;SDS_P1;SDS_P2;PMS_P1;PMS_P2;Temp;Humidity;BMP_temperature;BMP_pressure;BME280_temperature;BME280_humidity;BME280_pressure;Samples;Min_cycle;Max_cycle;Signal;HPM_P1;HPM_P2
2021/10/30 00:00:08;;;;;;;11.23;2.60;;;9.70;99.90;;;;;;5080105;28;20044;-58
2021/10/30 00:02:35;;;;;;;12.73;2.35;;;9.70;99.90;;;;;;5082213;28;20094;-58
2021/10/30 00:05:02;;;;;;;9.80;2.83;;;9.80;99.90;;;;;;5073343;28;20044;-58
2021/10/30 00:07:29;;;;;;;7.40;1.95;;;9.80;99.90;;;;;;5080971;28;20294;-58
2021/10/30 00:09:56;;;;;;;9.65;2.90;;;9.90;99.90;;;;;;5082901;28;20063;-58
2021/10/30 00:12:23;;;;;;;10.13;2.00;;;10.00;99.90;;;;;;5082458;28;20051;-58
2021/10/30 00:14:49;;;;;;;14.93;2.28;;;10.10;99.90;;;;;;5077845;28;20127;-58
2021/10/30 00:17:16;;;;;;;15.15;2.53;;;10.20;99.90;;;;;;5078633;28;20139;-58
2021/10/30 00:19:43;;;;;;;10.50;2.30;;;10.30;99.90;;;;;;5082441;28;20098;-58
2021/10/30 00:22:09;;;;;;;13.55;2.55;;;10.40;99.90;;;;;;5082240;28;20544;-59
2021/10/30 00:24:36;;;;;;;17.90;2.53;;;10.50;99.90;;;;;;5082347;28;20136;-58
2021/10/30 00:27:04;;;;;;;6.75;1.98;;;10.60;99.90;;;;;;5082449;28;20142;-58
2021/10/30 00:29:31;;;;;;;15.90;2.50;;;10.60;99.90;;;;;;5079750;28;20135;-58
2021/10/30 00:31:57;;;;;;;21.25;3.33;;;10.60;99.90;;;;;;5081787;28;20056;-58
2021/10/30 00:34:24;;;;;;;14.23;3.05;;;10.70;99.90;;;;;;5082010;28;20503;-58
2021/10/30 00:36:51;;;;;;;12.00;2.97;;;10.70;99.90;;;;;;5081712;28;20131;-58
2021/10/30 00:39:18;;;;;;;17.73;4.00;;;10.80;99.90;;;;;;5082276;28;20128;-58
2021/10/30 00:41:49;;;;;;;13.65;3.95;;;10.80;99.90;;;;;;5082460;28;20515;-58
2021/10/30 00:44:16;;;;;;;16.08;4.10;;;10.80;99.90;;;;;;5081252;28;20047;-59
2021/10/30 00:46:43;;;;;;;14.15;4.20;;;10.80;99.90;;;;;;5081208;28;20109;-58
2021/10/30 00:49:10;;;;;;;19.30;4.00;;;10.70;99.90;;;;;;5081854;28;20572;-58
2021/10/30 00:51:37;;;;;;;9.45;3.20;;;10.70;99.90;;;;;;5082294;28;20072;-58
2021/10/30 00:54:05;;;;;;;15.05;3.65;;;10.60;99.90;;;;;;5081669;28;20130;-58
2021/10/30 00:56:32;;;;;;;13.43;4.05;;;10.60;99.90;;;;;;5080536;28;20135;-58
2021/10/30 00:59:00;;;;;;;16.27;4.32;;;10.60;99.90;;;;;;5062553;28;20475;-58
2021/10/30 01:01:27;;;;;;;12.73;3.55;;;10.60;99.90;;;;;;5081954;28;20135;-58
2021/10/30 01:03:54;;;;;;;10.55;3.40;;;10.60;99.90;;;;;;5080831;28;20048;-58
2021/10/30 01:06:23;;;;;;;9.65;2.85;;;10.60;99.90;;;;;;5081849;28;20047;-58
2021/10/30 01:08:50;;;;;;;18.15;4.15;;;10.60;99.90;;;;;;5081257;28;20434;-58
2021/10/30 01:11:17;;;;;;;15.60;3.47;;;10.50;99.90;;;;;;5080649;28;20042;-58
2021/10/30 01:13:44;;;;;;;12.90;2.83;;;10.50;99.90;;;;;;5081230;28;20071;-58
2021/10/30 01:16:11;;;;;;;16.45;3.83;;;10.50;99.90;;;;;;5080213;28;20171;-58
2021/10/30 01:18:39;;;;;;;13.13;2.70;;;10.40;99.90;;;;;;5079341;28;20047;-58
2021/10/30 01:21:06;;;;;;;10.55;3.00;;;10.40;99.90;;;;;;5081832;28;20075;-58
2021/10/30 01:23:32;;;;;;;13.85;3.08;;;10.40;99.90;;;;;;5081888;28;20346;-58
2021/10/30 01:26:00;;;;;;;8.00;1.98;;;10.40;99.90;;;;;;5081518;28;20052;-58
2021/10/30 01:28:28;;;;;;;11.93;2.63;;;10.40;99.90;;;;;;5080589;28;20101;-58
2021/10/30 01:30:54;;;;;;;10.40;3.05;;;10.40;99.90;;;;;;5081983;28;20127;-59
2021/10/30 01:33:21;;;;;;;11.82;2.78;;;10.30;99.90;;;;;;5075857;28;20482;-58
2021/10/30 01:35:50;;;;;;;9.70;2.78;;;10.30;99.90;;;;;;5077980;28;20040;-59
2021/10/30 01:38:17;;;;;;;14.05;2.95;;;10.30;99.90;;;;;;5083921;28;20075;-58
2021/10/30 01:40:47;;;;;;;8.70;2.63;;;10.30;99.90;;;;;;5084250;28;20048;-59
2021/10/30 01:43:14;;;;;;;6.43;2.17;;;10.30;99.90;;;;;;5086881;28;20503;-58
2021/10/30 01:45:42;;;;;;;7.10;2.35;;;10.30;99.90;;;;;;5086765;28;20044;-58
2021/10/30 01:48:09;;;;;;;9.38;2.83;;;10.30;99.90;;;;;;5083726;28;20257;-58
2021/10/30 01:50:37;;;;;;;21.10;3.35;;;10.30;99.90;;;;;;5087729;28;20550;-58
2021/10/30 01:53:04;;;;;;;11.77;3.30;;;10.20;99.90;;;;;;5085893;28;20128;-58
2021/10/30 01:55:32;;;;;;;9.38;2.60;;;10.20;99.90;;;;;;5086954;28;20064;-58
2021/10/30 01:57:59;;;;;;;15.45;4.68;;;10.20;99.90;;;;;;5087247;28;20130;-58
2021/10/30 02:00:27;;;;;;;7.07;3.28;;;10.20;99.90;;;;;;5086046;28;20135;-58
2021/10/30 02:02:56;;;;;;;12.57;2.75;;;10.30;99.90;;;;;;5084965;28;20078;-58
2021/10/30 02:05:23;;;;;;;9.98;2.85;;;10.30;99.90;;;;;;5087024;28;20086;-59
2021/10/30 02:07:49;;;;;;;11.93;3.38;;;10.30;99.90;;;;;;5086127;28;20079;-58
2021/10/30 02:10:16;;;;;;;14.65;2.63;;;10.30;99.90;;;;;;5086852;28;20079;-58
2021/10/30 02:12:43;;;;;;;8.82;2.60;;;10.30;99.90;;;;;;5086452;28;20048;-58
2021/10/30 02:15:10;;;;;;;9.73;3.13;;;10.30;99.90;;;;;;5085840;28;20044;-58
2021/10/30 02:17:37;;;;;;;16.42;3.30;;;10.30;99.90;;;;;;5085218;28;20242;-58
2021/10/30 02:20:06;;;;;;;8.38;2.97;;;10.30;99.90;;;;;;5086792;28;20140;-58
2021/10/30 02:22:32;;;;;;;10.60;3.83;;;10.30;99.90;;;;;;5086956;28;20127;-58
2021/10/30 02:24:59;;;;;;;13.57;3.08;;;10.30;99.90;;;;;;5086654;28;20100;-58
2021/10/30 02:27:26;;;;;;;10.85;2.83;;;10.30;99.90;;;;;;5086076;28;20163;-58
2021/10/30 02:29:53;;;;;;;9.45;3.00;;;10.30;99.90;;;;;;5085367;28;20083;-58
2021/10/30 02:32:19;;;;;;;9.77;2.60;;;10.40;99.90;;;;;;5085464;28;20133;-58
2021/10/30 02:34:46;;;;;;;10.57;2.58;;;10.40;99.90;;;;;;5086258;28;20456;-57
2021/10/30 02:37:13;;;;;;;15.00;3.78;;;10.40;99.90;;;;;;5086568;28;20060;-58
2021/10/30 02:39:40;;;;;;;10.55;3.05;;;10.40;99.90;;;;;;5086686;28;20105;-58
2021/10/30 02:42:07;;;;;;;12.70;2.58;;;10.50;99.90;;;;;;5086751;28;20106;-58
2021/10/30 02:44:34;;;;;;;11.80;3.42;;;10.50;99.90;;;;;;5085193;28;20104;-58
2021/10/30 02:47:01;;;;;;;13.90;3.05;;;10.50;99.90;;;;;;5084908;28;20121;-58
2021/10/30 02:49:28;;;;;;;9.13;3.50;;;10.50;99.90;;;;;;5086533;28;20530;-58
2021/10/30 02:51:55;;;;;;;13.52;3.08;;;10.40;99.90;;;;;;5085135;28;20123;-58
2021/10/30 02:54:22;;;;;;;11.18;3.10;;;10.40;99.90;;;;;;5084851;28;20076;-59
2021/10/30 02:56:49;;;;;;;5.95;2.80;;;10.40;99.90;;;;;;5086385;28;20075;-58
2021/10/30 02:59:15;;;;;;;12.43;2.85;;;10.40;99.90;;;;;;5084967;28;20494;-58
2021/10/30 03:01:42;;;;;;;9.32;3.10;;;10.40;99.90;;;;;;5085571;28;20075;-58
2021/10/30 03:04:09;;;;;;;7.63;2.50;;;10.40;99.90;;;;;;5085676;28;20208;-58
2021/10/30 03:06:36;;;;;;;15.38;4.15;;;10.50;99.90;;;;;;5086151;28;20125;-58
2021/10/30 03:09:03;;;;;;;10.07;3.08;;;10.50;99.90;;;;;;5085993;28;20079;-58
2021/10/30 03:11:30;;;;;;;14.90;3.40;;;10.50;99.90;;;;;;5085976;28;20068;-58
2021/10/30 03:13:56;;;;;;;9.27;2.67;;;10.50;99.90;;;;;;5084244;28;20071;-58
2021/10/30 03:16:23;;;;;;;14.90;3.15;;;10.50;99.90;;;;;;5085915;28;20119;-58
2021/10/30 03:18:50;;;;;;;9.10;3.42;;;10.50;99.90;;;;;;5084089;28;20044;-58
2021/10/30 03:21:17;;;;;;;19.45;4.38;;;10.50;99.90;;;;;;5085991;28;20079;-58
2021/10/30 03:23:43;;;;;;;11.85;3.05;;;10.50;99.90;;;;;;5087596;28;20135;-59
2021/10/30 03:26:10;;;;;;;14.77;3.78;;;10.50;99.90;;;;;;5087501;28;20067;-57
2021/10/30 03:28:37;;;;;;;11.27;3.50;;;10.50;99.90;;;;;;5086547;28;20102;-58
2021/10/30 03:31:04;;;;;;;12.35;3.58;;;10.50;99.90;;;;;;5087102;28;20506;-57
2021/10/30 03:33:31;;;;;;;14.25;3.38;;;10.50;99.90;;;;;;5086660;28;20078;-58
2021/10/30 03:35:58;;;;;;;14.85;4.28;;;10.60;99.90;;;;;;5087568;28;20048;-57
2021/10/30 03:38:24;;;;;;;8.43;3.88;;;10.60;99.90;;;;;;5087248;28;20135;-57
2021/10/30 03:40:51;;;;;;;12.68;3.70;;;10.60;99.90;;;;;;5087494;28;20399;-57
2021/10/30 03:43:18;;;;;;;18.83;3.80;;;10.50;99.90;;;;;;5086155;28;20409;-58
2021/10/30 03:45:45;;;;;;;11.00;4.15;;;10.50;99.90;;;;;;5087047;28;20132;-57
2021/10/30 03:48:12;;;;;;;19.48;5.28;;;10.50;99.90;;;;;;5085322;28;20077;-57
2021/10/30 03:50:39;;;;;;;15.40;3.63;;;10.60;99.90;;;;;;5087538;28;20048;-57
2021/10/30 03:53:07;;;;;;;11.93;3.28;;;10.60;99.90;;;;;;5085839;28;20483;-58
2021/10/30 03:55:33;;;;;;;12.52;4.30;;;10.70;99.90;;;;;;5087532;28;20130;-58
2021/10/30 03:58:00;;;;;;;8.57;3.80;;;10.70;99.90;;;;;;5086867;28;20052;-57
2021/10/30 04:00:27;;;;;;;10.60;4.05;;;10.80;99.90;;;;;;5085715;28;20086;-58
2021/10/30 04:02:54;;;;;;;10.77;3.60;;;10.80;99.90;;;;;;5085230;28;20044;-57
2021/10/30 04:05:22;;;;;;;11.32;3.60;;;10.90;99.90;;;;;;5086046;28;20076;-57
2021/10/30 04:07:49;;;;;;;12.10;4.07;;;10.90;99.90;;;;;;5086432;28;20052;-58
2021/10/30 04:10:15;;;;;;;14.63;4.03;;;11.00;99.90;;;;;;5087018;28;20072;-57
2021/10/30 04:12:45;;;;;;;12.38;3.78;;;11.00;99.90;;;;;;5079890;28;20107;-57
2021/10/30 04:15:12;;;;;;;10.93;4.20;;;11.00;99.90;;;;;;5085503;28;20472;-59
2021/10/30 04:17:38;;;;;;;18.92;5.78;;;11.10;99.90;;;;;;5086045;28;20436;-59
2021/10/30 04:20:06;;;;;;;13.00;4.78;;;11.10;99.90;;;;;;5086589;28;20067;-59
2021/10/30 04:22:32;;;;;;;10.88;3.80;;;11.20;99.90;;;;;;5086614;28;20455;-59
2021/10/30 04:25:00;;;;;;;17.90;4.93;;;11.20;99.90;;;;;;5085329;28;20082;-59
2021/10/30 04:27:26;;;;;;;9.68;4.10;;;11.20;99.90;;;;;;5086693;28;20523;-59
2021/10/30 04:29:56;;;;;;;15.35;5.90;;;11.20;99.90;;;;;;5085326;28;20075;-59
2021/10/30 04:32:23;;;;;;;14.75;5.18;;;11.30;99.90;;;;;;5085224;28;20098;-59
2021/10/30 04:34:57;;;;;;;9.95;4.07;;;11.20;99.90;;;;;;5086659;28;20475;-59
2021/10/30 04:37:24;;;;;;;11.48;5.18;;;11.30;99.90;;;;;;5086572;28;20546;-57
2021/10/30 04:39:51;;;;;;;12.10;3.67;;;11.30;99.90;;;;;;5086259;28;20075;-59
2021/10/30 04:42:18;;;;;;;12.63;3.78;;;11.30;99.90;;;;;;5085753;28;20090;-59
2021/10/30 04:44:45;;;;;;;13.02;4.80;;;11.30;99.90;;;;;;5085232;28;20076;-59
2021/10/30 04:47:19;;;;;;;17.05;3.85;;;11.40;99.90;;;;;;5085206;28;20131;-58
2021/10/30 04:49:46;;;;;;;;;;;11.40;99.90;;;;;;5082421;28;20515;-57
2021/10/30 04:52:15;;;;;;;13.68;4.40;;;11.40;99.90;;;;;;5083411;28;20011;-59
2021/10/30 04:54:42;;;;;;;9.75;4.18;;;11.40;99.90;;;;;;5084645;28;20519;-60
2021/10/30 04:57:09;;;;;;;14.90;4.30;;;11.40;99.90;;;;;;5083891;28;20078;-59
2021/10/30 04:59:36;;;;;;;7.03;4.22;;;11.40;99.90;;;;;;5083084;28;20170;-59
2021/10/30 05:02:03;;;;;;;8.88;4.35;;;11.40;99.90;;;;;;5082240;28;20159;-59
2021/10/30 05:04:30;;;;;;;9.45;3.58;;;11.40;99.90;;;;;;5080500;28;20045;-59
2021/10/30 05:06:57;;;;;;;8.50;4.38;;;11.40;99.90;;;;;;5082126;28;20523;-57
2021/10/30 05:09:24;;;;;;;10.13;4.15;;;11.40;99.90;;;;;;5081623;28;20056;-60
2021/10/30 05:11:51;;;;;;;9.15;3.25;;;11.30;99.90;;;;;;5081764;28;20063;-57
2021/10/30 05:14:20;;;;;;;10.35;3.50;;;11.40;99.90;;;;;;5080975;28;20058;-57
2021/10/30 05:16:48;;;;;;;10.55;4.22;;;11.40;99.90;;;;;;5085515;28;20051;-59
2021/10/30 05:19:16;;;;;;;11.43;4.45;;;11.40;99.90;;;;;;5085608;28;20421;-59
2021/10/30 05:21:43;;;;;;;10.88;3.65;;;11.40;99.90;;;;;;5086634;28;20059;-57
2021/10/30 05:24:13;;;;;;;11.50;4.20;;;11.40;99.90;;;;;;5086895;28;20135;-57
2021/10/30 05:26:40;;;;;;;9.93;4.85;;;11.40;99.90;;;;;;5089509;28;20082;-57
2021/10/30 05:29:06;;;;;;;13.20;3.88;;;11.40;99.90;;;;;;5086543;28;20152;-58
2021/10/30 05:31:33;;;;;;;12.65;4.47;;;11.40;99.90;;;;;;5089842;28;20072;-58
2021/10/30 05:34:04;;;;;;;10.65;3.95;;;11.40;99.90;;;;;;5088267;28;20048;-57
2021/10/30 05:36:34;;;;;;;9.02;4.22;;;11.40;99.90;;;;;;5089294;28;20503;-57
2021/10/30 05:39:01;;;;;;;15.95;4.35;;;11.40;99.90;;;;;;5088173;28;21218;-57
2021/10/30 05:41:28;;;;;;;9.98;5.20;;;11.40;99.90;;;;;;5086318;28;20040;-57
2021/10/30 05:43:54;;;;;;;10.18;5.50;;;11.40;99.90;;;;;;5064801;28;20079;-57
2021/10/30 05:46:21;;;;;;;8.27;4.80;;;11.40;99.90;;;;;;5085774;28;20084;-57
2021/10/30 05:48:51;;;;;;;8.90;4.03;;;11.40;99.90;;;;;;5081496;28;20058;-57
2021/10/30 05:51:17;;;;;;;8.20;3.22;;;11.40;99.90;;;;;;5076703;28;20097;-57
2021/10/30 05:53:44;;;;;;;9.00;3.00;;;11.40;99.90;;;;;;5081189;28;20044;-57
2021/10/30 05:56:11;;;;;;;9.65;3.70;;;11.40;99.90;;;;;;5070363;28;20043;-57
2021/10/30 05:58:38;;;;;;;8.38;3.25;;;11.50;99.90;;;;;;5080689;28;20489;-57
2021/10/30 06:01:06;;;;;;;9.20;4.03;;;11.50;99.90;;;;;;5080931;28;20499;-57
2021/10/30 06:03:33;;;;;;;9.27;3.22;;;11.50;99.90;;;;;;5080005;28;20059;-57
2021/10/30 06:06:00;;;;;;;8.93;3.60;;;11.60;99.90;;;;;;5081745;28;20544;-58
2021/10/30 06:08:27;;;;;;;10.07;3.47;;;11.60;99.90;;;;;;5080906;28;20580;-59
2021/10/30 06:10:55;;;;;;;14.48;3.72;;;11.60;99.90;;;;;;5080936;28;20549;-59
2021/10/30 06:13:22;;;;;;;7.40;3.88;;;11.60;99.90;;;;;;5080695;28;20127;-58
2021/10/30 06:15:49;;;;;;;11.73;4.43;;;11.60;99.90;;;;;;5081558;28;20080;-59
2021/10/30 06:18:16;;;;;;;11.07;3.42;;;11.60;99.90;;;;;;5070743;28;20171;-59
2021/10/30 06:20:46;;;;;;;8.48;5.05;;;11.60;99.90;;;;;;5080787;28;20075;-59
2021/10/30 06:23:15;;;;;;;10.05;3.20;;;11.60;99.90;;;;;;5079438;28;20109;-58
2021/10/30 06:25:43;;;;;;;9.90;2.95;;;11.70;99.90;;;;;;5079774;28;20078;-59
2021/10/30 06:28:10;;;;;;;15.63;3.28;;;11.70;99.90;;;;;;5078901;28;20148;-58
2021/10/30 06:30:37;;;;;;;5.60;3.10;;;11.70;99.90;;;;;;5080526;28;20127;-63
2021/10/30 06:33:08;;;;;;;5.32;2.88;;;11.70;99.90;;;;;;5079860;28;20433;-59
2021/10/30 06:35:34;;;;;;;6.07;2.50;;;11.80;99.90;;;;;;5081287;28;20128;-58
2021/10/30 06:38:01;;;;;;;12.85;3.90;;;11.80;99.90;;;;;;5080880;28;20075;-58
2021/10/30 06:40:28;;;;;;;7.35;3.08;;;11.80;99.90;;;;;;5078883;28;20090;-58
2021/10/30 06:42:55;;;;;;;17.85;6.60;;;11.80;99.90;;;;;;5078740;28;20567;-59
2021/10/30 06:45:21;;;;;;;10.80;3.35;;;11.90;99.90;;;;;;5080121;28;20126;-59
2021/10/30 06:47:48;;;;;;;9.80;4.45;;;11.90;99.90;;;;;;5080202;28;20378;-59
2021/10/30 06:50:21;;;;;;;7.30;2.78;;;12.00;99.90;;;;;;5080210;28;20156;-59
2021/10/30 06:52:52;;;;;;;10.82;4.00;;;12.00;99.90;;;;;;5080344;28;20426;-59
2021/10/30 06:55:20;;;;;;;6.93;2.30;;;12.00;99.90;;;;;;5080007;28;20083;-59
2021/10/30 06:57:47;;;;;;;4.30;2.42;;;12.10;99.90;;;;;;5076558;28;20048;-58
2021/10/30 07:00:16;;;;;;;6.82;2.58;;;12.10;99.90;;;;;;5076999;28;20444;-59
2021/10/30 07:02:44;;;;;;;7.18;2.35;;;12.10;99.90;;;;;;5079857;28;20161;-59
2021/10/30 07:05:11;;;;;;;9.05;2.13;;;12.20;99.90;;;;;;5079719;28;20090;-59
2021/10/30 07:07:38;;;;;;;13.07;3.58;;;12.20;99.90;;;;;;5079213;28;20188;-59
2021/10/30 07:10:05;;;;;;;8.20;2.30;;;12.20;99.90;;;;;;5080109;28;20134;-59
2021/10/30 07:12:37;;;;;;;9.02;3.05;;;12.30;99.90;;;;;;5079389;28;20040;-58
2021/10/30 07:15:08;;;;;;;8.05;2.33;;;12.30;99.90;;;;;;5077507;28;20109;-59
2021/10/30 07:17:35;;;;;;;7.28;2.50;;;12.30;99.90;;;;;;5079052;28;20472;-59
2021/10/30 07:20:03;;;;;;;7.30;2.20;;;12.30;99.90;;;;;;5077613;28;20127;-59
2021/10/30 07:22:30;;;;;;;9.13;2.50;;;12.30;99.90;;;;;;5080401;28;20055;-59
2021/10/30 07:24:58;;;;;;;8.55;2.70;;;12.40;99.90;;;;;;5078329;28;20505;-59
2021/10/30 07:27:24;;;;;;;8.48;4.20;;;12.40;99.90;;;;;;5074876;28;20051;-59
2021/10/30 07:29:52;;;;;;;13.82;7.50;;;12.50;99.90;;;;;;5078784;28;20662;-59
2021/10/30 07:32:20;;;;;;;9.10;3.30;;;12.50;99.90;;;;;;5079521;28;20495;-59
2021/10/30 07:34:47;;;;;;;6.68;2.38;;;12.50;99.90;;;;;;5079542;28;20113;-59
2021/10/30 07:37:14;;;;;;;10.98;3.13;;;12.50;99.90;;;;;;5078426;28;20479;-59
2021/10/30 07:39:40;;;;;;;9.32;2.65;;;12.50;99.90;;;;;;5077709;28;20190;-58
2021/10/30 07:42:07;;;;;;;11.60;3.03;;;12.60;99.90;;;;;;5077945;28;20130;-59
2021/10/30 07:44:38;;;;;;;8.35;3.30;;;12.60;99.90;;;;;;5077178;28;20044;-60
2021/10/30 07:47:05;;;;;;;12.25;3.25;;;12.60;99.90;;;;;;5077627;28;20079;-59
2021/10/30 07:49:32;;;;;;;8.30;2.65;;;12.60;99.90;;;;;;5075911;28;20531;-59
2021/10/30 07:52:00;;;;;;;8.05;3.03;;;12.60;99.90;;;;;;5076587;28;20069;-59
2021/10/30 07:54:27;;;;;;;14.85;3.35;;;12.60;99.90;;;;;;5077076;28;20044;-60
2021/10/30 07:56:54;;;;;;;9.50;3.50;;;12.60;99.90;;;;;;5075962;28;20119;-59
2021/10/30 07:59:21;;;;;;;7.55;3.00;;;12.60;99.90;;;;;;5077818;28;20131;-61
2021/10/30 08:01:50;;;;;;;6.20;2.10;;;12.60;99.90;;;;;;5077318;28;20139;-59
2021/10/30 08:04:17;;;;;;;6.45;1.67;;;12.60;99.90;;;;;;5072346;28;20071;-59
2021/10/30 08:06:44;;;;;;;6.50;2.42;;;12.60;99.90;;;;;;5075505;28;20730;-59
2021/10/30 08:09:11;;;;;;;5.55;1.92;;;12.60;99.90;;;;;;5076438;28;20132;-59
2021/10/30 08:11:38;;;;;;;7.88;2.45;;;12.60;99.90;;;;;;5077799;28;20086;-59
2021/10/30 08:14:05;;;;;;;7.50;2.03;;;12.50;99.90;;;;;;5076319;28;20671;-60
2021/10/30 08:16:32;;;;;;;2.55;1.13;;;12.50;99.90;;;;;;5077615;28;20125;-59
2021/10/30 08:18:59;;;;;;;5.82;1.38;;;12.50;99.90;;;;;;5076430;28;20380;-60
2021/10/30 08:21:26;;;;;;;4.68;1.48;;;12.40;99.90;;;;;;5078351;28;20456;-60
2021/10/30 08:23:52;;;;;;;5.40;2.00;;;12.40;99.90;;;;;;5076715;28;20131;-59
2021/10/30 08:26:21;;;;;;;8.15;1.95;;;12.50;99.90;;;;;;5078804;28;20171;-59
2021/10/30 08:28:48;;;;;;;4.43;1.45;;;12.50;99.90;;;;;;5076893;28;20135;-59
2021/10/30 08:31:14;;;;;;;4.65;1.42;;;12.50;99.90;;;;;;5078353;28;21777;-59
2021/10/30 08:33:41;;;;;;;5.35;1.55;;;12.50;99.90;;;;;;5077556;28;20102;-59
2021/10/30 08:36:08;;;;;;;4.07;1.20;;;12.50;99.90;;;;;;5077854;28;20126;-59
2021/10/30 08:38:35;;;;;;;7.25;1.33;;;12.50;99.90;;;;;;5078538;28;20517;-59
2021/10/30 08:41:03;;;;;;;5.93;1.20;;;12.50;99.90;;;;;;5077105;28;20043;-59
2021/10/30 08:43:30;;;;;;;4.55;1.40;;;12.50;99.90;;;;;;5077197;28;20083;-59
2021/10/30 08:46:00;;;;;;;4.45;1.40;;;12.40;99.90;;;;;;5077952;28;20109;-59
2021/10/30 08:48:30;;;;;;;5.45;1.75;;;12.40;99.90;;;;;;5077855;28;20131;-59
2021/10/30 08:50:57;;;;;;;6.53;1.60;;;12.40;99.90;;;;;;5079066;28;20120;-58
2021/10/30 08:53:24;;;;;;;8.07;1.30;;;12.40;99.90;;;;;;5078045;28;20471;-58
2021/10/30 08:55:51;;;;;;;6.72;2.17;;;12.30;99.90;;;;;;5077031;28;20087;-58
2021/10/30 08:58:20;;;;;;;6.13;1.58;;;12.30;99.90;;;;;;5078243;28;20214;-59
2021/10/30 09:00:51;;;;;;;5.85;1.15;;;12.30;99.90;;;;;;5078437;28;20131;-59
2021/10/30 09:03:20;;;;;;;7.00;1.70;;;12.30;99.90;;;;;;5078352;28;20044;-59
2021/10/30 09:05:48;;;;;;;6.13;1.63;;;12.30;99.90;;;;;;5077080;28;20101;-59
2021/10/30 09:08:16;;;;;;;5.80;1.23;;;12.40;99.90;;;;;;5077768;28;20523;-59
2021/10/30 09:10:47;;;;;;;6.72;1.40;;;12.40;99.90;;;;;;5079313;28;20048;-59
2021/10/30 09:13:15;;;;;;;10.40;1.58;;;12.50;99.90;;;;;;5075003;28;20143;-58
2021/10/30 09:15:43;;;;;;;5.97;1.38;;;12.50;99.90;;;;;;5078241;28;20142;-59
2021/10/30 09:18:19;;;;;;;4.78;1.30;;;12.50;99.90;;;;;;5076349;28;20127;-59
2021/10/30 09:20:51;;;;;;;7.38;1.60;;;12.50;99.90;;;;;;5077128;28;20056;-59
2021/10/30 09:23:20;;;;;;;4.10;1.30;;;12.60;99.90;;;;;;5077179;28;20128;-59
2021/10/30 09:25:54;;;;;;;6.75;1.50;;;12.60;99.90;;;;;;5073488;28;20092;-59
2021/10/30 09:28:24;;;;;;;4.50;1.20;;;12.60;99.90;;;;;;5061382;28;20075;-59
2021/10/30 09:30:57;;;;;;;8.90;2.03;;;12.60;99.90;;;;;;5077918;28;20095;-59
2021/10/30 09:33:29;;;;;;;;;;;12.50;99.90;;;;;;5077761;28;20140;-59
2021/10/30 09:36:09;;;;;;;3.75;1.33;;;12.60;99.90;;;;;;5078838;28;19946;-59
2021/10/30 09:38:38;;;;;;;6.25;2.05;;;12.60;99.90;;;;;;5078261;28;20580;-59
2021/10/30 09:41:30;;;;;;;4.88;1.27;;;12.70;99.90;;;;;;5078459;28;20511;-59
2021/10/30 09:44:01;;;;;;;4.03;0.82;;;12.70;99.90;;;;;;5073776;28;20109;-59
2021/10/30 09:46:32;;;;;;;3.40;1.02;;;12.80;99.90;;;;;;5077670;28;20178;-59
2021/10/30 09:49:11;;;;;;;4.68;1.08;;;12.80;99.90;;;;;;5076569;28;20139;-59
2021/10/30 09:51:38;;;;;;;7.30;1.83;;;12.90;99.90;;;;;;5075536;28;20714;-59
2021/10/30 09:54:08;;;;;;;8.60;1.73;;;12.90;99.90;;;;;;5077198;28;20927;-59
2021/10/30 09:56:42;;;;;;;4.93;1.02;;;12.90;99.90;;;;;;5075133;28;20052;-60
2021/10/30 09:59:13;;;;;;;7.30;1.13;;;12.90;99.40;;;;;;5072886;28;20167;-59
2021/10/30 10:01:40;;;;;;;3.05;1.00;;;12.90;99.70;;;;;;5076554;28;20044;-59
2021/10/30 10:04:07;;;;;;;2.28;0.90;;;13.00;99.40;;;;;;5078842;28;20079;-59
2021/10/30 10:06:34;;;;;;;1.52;0.45;;;13.00;99.00;;;;;;5062411;28;20550;-59
2021/10/30 10:09:02;;;;;;;5.05;1.15;;;13.00;97.20;;;;;;5079993;28;20165;-59
2021/10/30 10:11:29;;;;;;;1.05;0.30;;;12.90;98.10;;;;;;5079328;28;20052;-59
2021/10/30 10:13:57;;;;;;;1.20;0.50;;;12.90;98.20;;;;;;5079418;28;20082;-59
2021/10/30 10:16:24;;;;;;;1.23;0.50;;;12.80;98.50;;;;;;5079029;28;20490;-59
2021/10/30 10:18:52;;;;;;;1.77;0.40;;;12.80;98.00;;;;;;5078419;28;20131;-59
2021/10/30 10:21:26;;;;;;;1.00;0.38;;;12.80;97.80;;;;;;5077542;28;20076;-59
2021/10/30 10:23:56;;;;;;;0.82;0.40;;;12.80;98.00;;;;;;5076546;28;20103;-59
2021/10/30 10:26:33;;;;;;;0.88;0.32;;;12.80;97.60;;;;;;5079922;28;20167;-59
2021/10/30 10:29:03;;;;;;;2.95;0.40;;;12.80;97.70;;;;;;5066168;28;20691;-59
2021/10/30 10:31:30;;;;;;;1.48;0.30;;;12.70;97.80;;;;;;5078621;28;20612;-59
2021/10/30 10:34:13;;;;;;;1.27;0.40;;;12.60;98.50;;;;;;5079214;28;20127;-59
2021/10/30 10:36:42;;;;;;;0.55;0.40;;;12.40;98.20;;;;;;5080165;28;20079;-58
2021/10/30 10:39:10;;;;;;;0.73;0.40;;;12.40;98.60;;;;;;5079242;28;20559;-59
2021/10/30 10:41:48;;;;;;;0.50;0.40;;;12.40;98.50;;;;;;5079906;28;20074;-59
2021/10/30 10:44:41;;;;;;;0.73;0.47;;;12.50;98.60;;;;;;5079376;28;20162;-59
2021/10/30 10:47:30;;;;;;;0.28;0.20;;;12.50;98.10;;;;;;5076265;28;20052;-59
2021/10/30 10:50:22;;;;;;;6.90;3.75;;;12.50;98.30;;;;;;5078460;28;20068;-60
2021/10/30 10:53:09;;;;;;;2.33;0.93;;;12.60;98.50;;;;;;5080899;28;20079;-59
2021/10/30 10:55:45;;;;;;;0.73;0.30;;;12.60;97.60;;;;;;5079666;28;20142;-59
2021/10/30 10:58:13;;;;;;;0.60;0.20;;;12.60;97.50;;;;;;5078822;28;20046;-58
2021/10/30 11:01:03;;;;;;;1.52;0.50;;;12.60;97.60;;;;;;5076973;28;20051;-58
2021/10/30 11:03:33;;;;;;;2.08;0.20;;;12.60;96.40;;;;;;5079120;28;20185;-59
2021/10/30 11:06:00;;;;;;;1.75;0.52;;;12.60;97.30;;;;;;5079645;28;20105;-58
2021/10/30 11:08:29;;;;;;;0.47;0.20;;;12.60;97.60;;;;;;5035397;28;20047;-61
2021/10/30 11:11:09;;;;;;;0.80;0.30;;;12.70;97.70;;;;;;5075670;28;20056;-59
2021/10/30 11:13:36;;;;;;;1.42;0.50;;;12.90;96.90;;;;;;5076896;28;20135;-59
2021/10/30 11:16:03;;;;;;;1.63;0.38;;;13.10;97.30;;;;;;5078290;28;20143;-59
2021/10/30 11:18:32;;;;;;;2.05;0.30;;;13.20;97.00;;;;;;5075906;28;20150;-59
2021/10/30 11:21:13;;;;;;;1.70;0.30;;;13.30;96.90;;;;;;5077248;28;20056;-58
2021/10/30 11:23:45;;;;;;;0.75;0.40;;;13.40;96.30;;;;;;5076649;28;20127;-59
2021/10/30 11:26:17;;;;;;;0.70;0.50;;;13.60;96.90;;;;;;5077406;28;20081;-59
2021/10/30 11:28:43;;;;;;;1.38;0.50;;;13.70;95.70;;;;;;5071483;28;20135;-59
2021/10/30 11:31:32;;;;;;;1.08;0.75;;;13.90;96.10;;;;;;5077998;28;20194;-59
2021/10/30 11:34:03;;;;;;;0.77;0.30;;;14.00;95.00;;;;;;5072364;28;20065;-59
2021/10/30 11:36:31;;;;;;;0.95;0.40;;;14.20;94.80;;;;;;5059870;28;20053;-61
2021/10/30 11:38:59;;;;;;;2.70;0.60;;;14.40;95.10;;;;;;5077728;28;20605;-59
2021/10/30 11:41:31;;;;;;;2.53;0.70;;;14.70;95.20;;;;;;5074227;28;20657;-59
2021/10/30 11:44:04;;;;;;;1.02;0.40;;;14.80;94.40;;;;;;5071056;28;20090;-58
2021/10/30 11:46:31;;;;;;;1.15;0.50;;;14.70;94.40;;;;;;5077121;28;20087;-58
2021/10/30 11:48:59;;;;;;;1.50;0.50;;;14.70;93.60;;;;;;5074331;28;20068;-59
2021/10/30 11:51:32;;;;;;;1.20;0.40;;;14.80;92.80;;;;;;5077351;28;20054;-59
2021/10/30 11:54:02;;;;;;;2.80;0.47;;;14.70;93.30;;;;;;5076991;28;20559;-59
2021/10/30 11:56:29;;;;;;;3.50;0.52;;;14.60;93.10;;;;;;5077400;28;20135;-60
2021/10/30 11:58:58;;;;;;;1.17;0.60;;;14.70;92.80;;;;;;5075782;28;20071;-58
2021/10/30 12:01:40;;;;;;;0.63;0.32;;;14.70;92.90;;;;;;5079207;28;20087;-59
2021/10/30 12:04:20;;;;;;;1.13;0.40;;;14.80;92.30;;;;;;5078437;28;20652;-59
2021/10/30 12:07:07;;;;;;;2.78;0.50;;;15.00;92.90;;;;;;5058764;28;20411;-59
2021/10/30 12:09:37;;;;;;;0.80;0.40;;;15.40;94.00;;;;;;5070705;28;20144;-59
2021/10/30 12:12:06;;;;;;;5.68;0.60;;;15.80;91.10;;;;;;5078618;28;20079;-59
2021/10/30 12:14:37;;;;;;;1.23;0.52;;;16.00;90.20;;;;;;5077308;28;20047;-59
2021/10/30 12:17:09;;;;;;;2.25;0.60;;;16.10;91.20;;;;;;5057407;28;20076;-59
2021/10/30 12:19:37;;;;;;;1.65;0.60;;;16.40;90.60;;;;;;5069923;28;20479;-59
2021/10/30 12:22:09;;;;;;;1.17;0.50;;;16.10;88.70;;;;;;5077481;28;20727;-60
2021/10/30 12:24:37;;;;;;;0.95;0.50;;;16.20;89.50;;;;;;5077945;28;20071;-59
2021/10/30 12:27:05;;;;;;;3.83;0.70;;;15.90;89.60;;;;;;5077518;28;20139;-60
2021/10/30 12:29:45;;;;;;;3.70;0.60;;;16.00;90.20;;;;;;5074132;28;20167;-59
2021/10/30 12:32:13;;;;;;;4.30;0.63;;;15.80;89.00;;;;;;5078015;28;20105;-59
2021/10/30 12:34:58;;;;;;;2.97;0.85;;;16.00;90.80;;;;;;5078593;28;20048;-59
2021/10/30 12:37:31;;;;;;;1.35;0.60;;;16.30;88.40;;;;;;5078830;28;20591;-59
2021/10/30 12:40:23;;;;;;;1.25;0.38;;;16.50;90.00;;;;;;5077292;28;20051;-59
2021/10/30 12:43:09;;;;;;;1.80;0.50;;;16.60;84.50;;;;;;5078495;28;20083;-59
2021/10/30 12:45:45;;;;;;;1.33;0.50;;;16.40;81.10;;;;;;5077556;28;20134;-59
2021/10/30 12:48:13;;;;;;;0.73;0.32;;;16.50;79.20;;;;;;5076841;28;20082;-59
2021/10/30 12:50:40;;;;;;;1.65;0.40;;;16.40;83.50;;;;;;5078031;28;20056;-59